createdAt,value
2023-05-09T00:03:47.678Z,101199.63
2023-05-09T00:08:49.393Z,101197.00
2023-05-09T00:13:51.064Z,101189.44
2023-05-09T00:18:52.685Z,101178.66
2023-05-09T00:23:54.182Z,101174.38
2023-05-09T00:28:55.673Z,101170.16
2023-05-09T00:33:57.335Z,101170.53
2023-05-09T00:38:58.833Z,101166.47
2023-05-09T00:44:00.530Z,101159.56
2023-05-09T00:49:02.267Z,101155.69
2023-05-09T00:54:03.832Z,101141.47
2023-05-09T00:59:05.370Z,101141.06
2023-05-09T01:04:07.060Z,101138.63
2023-05-09T01:09:32.957Z,101132.31
2023-05-09T01:15:16.300Z,101131.31
2023-05-09T01:20:36.266Z,101128.47
2023-05-09T01:26:03.929Z,101116.91
2023-05-09T01:31:07.340Z,101109.38
2023-05-09T01:36:14.996Z,101107.53
2023-05-09T01:41:19.088Z,101117.66
2023-05-09T01:46:22.637Z,101108.66
2023-05-09T01:51:25.933Z,101112.06
2023-05-09T01:56:28.925Z,101107.75
2023-05-09T02:01:31.146Z,101108.16
2023-05-09T02:06:33.444Z,101111.75
2023-05-09T02:11:35.054Z,101104.66
2023-05-09T02:16:37.064Z,101105.69
2023-05-09T02:21:38.906Z,101101.56
2023-05-09T02:26:41.135Z,101106.47
2023-05-09T02:31:44.856Z,101095.66
2023-05-09T02:36:46.713Z,101087.44
2023-05-09T02:41:49.222Z,101091.88
2023-05-09T02:46:50.753Z,101081.06
2023-05-09T02:51:52.563Z,101081.28
2023-05-09T02:56:54.150Z,101073.13
2023-05-09T03:01:55.728Z,101080.06
2023-05-09T03:06:57.309Z,101066.22
2023-05-09T03:12:03.090Z,101064.94
2023-05-09T03:17:04.636Z,101066.16
2023-05-09T03:22:09.912Z,101059.03
2023-05-09T03:27:19.889Z,101064.72
2023-05-09T03:32:22.280Z,101053.75
2023-05-09T03:37:26.245Z,101053.59
2023-05-09T03:42:28.880Z,101047.75
2023-05-09T03:47:34.774Z,101040.38
2023-05-09T03:52:37.300Z,101039.97
2023-05-09T03:57:39.595Z,101033.28
2023-05-09T04:02:42.344Z,101030.28
2023-05-09T04:07:51.516Z,101023.41
2023-05-09T04:12:53.856Z,101022.84
2023-05-09T04:17:55.528Z,101011.44
2023-05-09T04:22:57.101Z,101011.66
2023-05-09T04:27:58.696Z,101004.75
2023-05-09T04:33:00.462Z,101005.75
2023-05-09T04:38:03.853Z,101007.81
2023-05-09T04:43:05.478Z,101001.91
2023-05-09T04:48:07.254Z,100999.06
2023-05-09T04:53:08.858Z,100999.25
2023-05-09T04:58:11.118Z,100997.59
2023-05-09T05:03:13.241Z,100994.63
2023-05-09T05:08:14.946Z,100990.53
2023-05-09T05:13:17.754Z,100991.00
2023-05-09T05:18:22.975Z,100990.81
2023-05-09T05:23:24.645Z,100980.78
2023-05-09T05:28:28.393Z,100978.28
2023-05-09T05:33:30.178Z,100969.72
2023-05-09T05:38:31.818Z,100966.13
2023-05-09T05:43:34.462Z,100957.97
2023-05-09T05:48:36.315Z,100958.78
2023-05-09T05:53:38.152Z,100953.66
2023-05-09T05:58:39.727Z,100956.31
2023-05-09T06:03:42.291Z,100946.25
2023-05-09T06:08:43.900Z,100950.88
2023-05-09T06:13:45.442Z,100950.41
2023-05-09T06:18:47.946Z,100941.81
2023-05-09T06:24:05.741Z,100945.31
2023-05-09T06:29:08.209Z,100940.50
2023-05-09T06:34:09.817Z,100942.59
2023-05-09T06:39:11.572Z,100928.03
2023-05-09T06:44:13.114Z,100927.06
2023-05-09T06:49:14.778Z,100923.22
2023-05-09T06:54:16.287Z,100930.97
2023-05-09T06:59:17.854Z,100916.41
2023-05-09T07:04:19.365Z,100900.34
2023-05-09T07:09:21.032Z,100899.34
2023-05-09T07:14:22.558Z,100884.69
2023-05-09T07:19:24.218Z,100881.81
2023-05-09T07:24:25.808Z,100876.25
2023-05-09T07:29:27.379Z,100868.88
2023-05-09T07:34:28.874Z,100866.84
2023-05-09T07:39:30.476Z,100866.81
2023-05-09T07:44:31.980Z,100855.84
2023-05-09T07:49:33.577Z,100856.22
2023-05-09T07:54:35.121Z,100847.34
2023-05-09T07:59:36.760Z,100849.03
2023-05-09T08:04:38.782Z,100853.34
2023-05-09T08:09:40.451Z,100840.31
2023-05-09T08:14:42.117Z,100828.09
2023-05-09T08:19:43.675Z,100808.38
2023-05-09T08:24:45.664Z,100807.88
2023-05-09T08:29:47.290Z,100796.22
2023-05-09T08:34:48.795Z,100790.00
2023-05-09T08:39:50.488Z,100790.53
2023-05-09T08:44:52.045Z,100787.28
2023-05-09T08:49:53.789Z,100777.34
2023-05-09T08:54:55.780Z,100768.91
2023-05-09T08:59:57.814Z,100771.44
2023-05-09T09:04:59.446Z,100757.31
2023-05-09T09:10:04.194Z,100758.88
2023-05-09T09:15:09.251Z,100753.31
2023-05-09T09:20:14.430Z,100742.81
2023-05-09T09:25:16.114Z,100734.34
2023-05-09T09:30:18.337Z,100720.41
2023-05-09T09:35:19.870Z,100727.34
2023-05-09T09:40:24.468Z,100723.44
2023-05-09T09:45:26.153Z,100709.38
2023-05-09T09:50:27.838Z,100710.44
2023-05-09T09:55:29.773Z,100702.56
2023-05-09T10:00:31.426Z,100688.81
2023-05-09T10:05:33.026Z,100688.13
2023-05-09T10:10:36.058Z,100683.75
2023-05-09T10:15:52.172Z,100678.13
2023-05-09T10:20:57.351Z,100671.00
2023-05-09T10:26:07.624Z,100658.19
2023-05-09T10:31:16.548Z,100651.03
2023-05-09T10:36:20.387Z,100650.50
2023-05-09T10:41:22.879Z,100643.06
2023-05-09T10:46:24.929Z,100621.69
2023-05-09T10:51:26.766Z,100622.47
2023-05-09T10:56:33.469Z,100605.56
2023-05-09T11:01:37.402Z,100596.44
2023-05-09T11:06:42.052Z,100590.19
2023-05-09T11:11:57.952Z,100583.66
2023-05-09T11:17:04.546Z,100573.91
2023-05-09T11:22:20.353Z,100567.09
2023-05-09T11:27:24.363Z,100561.25
2023-05-09T11:32:32.029Z,100558.22
2023-05-09T11:37:33.647Z,100537.69
2023-05-09T11:42:35.428Z,100532.84
2023-05-09T11:47:37.740Z,100534.81
2023-05-09T11:52:40.059Z,100525.66
2023-05-09T11:57:45.191Z,100508.41
2023-05-09T12:02:47.307Z,100501.94
2023-05-09T12:07:49.509Z,100501.25
2023-05-09T12:12:53.026Z,100496.38
2023-05-09T12:18:02.687Z,100481.34
2023-05-09T12:23:04.325Z,100482.56
2023-05-09T12:28:06.127Z,100471.09
2023-05-09T12:33:07.858Z,100458.53
2023-05-09T12:38:09.410Z,100460.09
2023-05-09T12:43:11.040Z,100454.47
2023-05-09T12:48:13.753Z,100443.41
2023-05-09T12:53:23.770Z,100430.94
2023-05-09T12:58:29.785Z,100425.16
2023-05-09T13:03:31.937Z,100420.09
2023-05-09T13:08:33.532Z,100414.41
2023-05-09T13:13:35.174Z,100406.25
2023-05-09T13:18:36.721Z,100401.72
2023-05-09T13:23:38.296Z,100389.09
2023-05-09T13:28:39.813Z,100381.19
2023-05-09T13:33:41.566Z,100371.13
2023-05-09T13:38:43.506Z,100367.69
2023-05-09T13:43:45.521Z,100369.91
2023-05-09T13:48:47.010Z,100362.53
2023-05-09T13:53:48.631Z,100353.38
2023-05-09T13:58:50.167Z,100351.06
2023-05-09T14:03:51.834Z,100342.59
2023-05-09T14:08:53.429Z,100336.88
2023-05-09T14:13:55.021Z,100330.03
2023-05-09T14:18:56.543Z,100323.34
2023-05-09T14:23:58.112Z,100326.00
2023-05-09T14:28:59.600Z,100327.41
2023-05-09T14:34:01.324Z,100324.78
2023-05-09T14:39:02.889Z,100327.56
2023-05-09T14:44:04.588Z,100324.94
2023-05-09T14:49:06.184Z,100338.97
2023-05-09T14:54:07.808Z,100341.38
2023-05-09T14:59:09.323Z,100329.47
2023-05-09T15:04:11.255Z,100316.56
2023-05-09T15:09:13.598Z,100310.97
2023-05-09T15:14:15.343Z,100304.84
2023-05-09T15:19:18.149Z,100297.81
2023-05-09T15:24:19.688Z,100290.56
2023-05-09T15:29:21.454Z,100289.28
2023-05-09T15:34:22.985Z,100281.41
2023-05-09T15:39:24.578Z,100278.56
2023-05-09T15:44:26.092Z,100282.19
2023-05-09T15:49:27.746Z,100287.94
2023-05-09T15:54:29.311Z,100287.56
2023-05-09T15:59:31.052Z,100287.00
2023-05-09T16:04:32.765Z,100285.47
2023-05-09T16:09:34.344Z,100283.88
2023-05-09T16:14:36.057Z,100292.88
2023-05-09T16:19:37.615Z,100289.38
2023-05-09T16:24:39.198Z,100290.53
2023-05-09T16:29:41.272Z,100284.38
2023-05-09T16:34:42.798Z,100287.22
2023-05-09T16:39:44.910Z,100280.44
2023-05-09T16:44:46.595Z,100276.59
2023-05-09T16:49:48.159Z,100273.31
2023-05-09T16:54:50.034Z,100274.91
2023-05-09T16:59:51.672Z,100269.59
2023-05-09T17:04:53.351Z,100264.53
2023-05-09T17:09:55.033Z,100269.72
2023-05-09T17:14:56.798Z,100266.31
2023-05-09T17:19:58.352Z,100260.22
2023-05-09T17:25:00.072Z,100261.69
2023-05-09T17:30:02.368Z,100254.00
2023-05-09T17:35:04.172Z,100255.03
2023-05-09T17:40:06.782Z,100245.81
2023-05-09T17:45:10.375Z,100239.34
2023-05-09T17:50:12.016Z,100229.72
2023-05-09T17:55:13.607Z,100227.81
2023-05-09T18:00:15.972Z,100222.50
2023-05-09T18:05:17.886Z,100212.63
2023-05-09T18:10:20.252Z,100209.66
2023-05-09T18:15:21.986Z,100210.25
2023-05-09T18:20:23.550Z,100213.03
2023-05-09T18:25:25.619Z,100200.19
2023-05-09T18:30:27.265Z,100201.31
2023-05-09T18:35:28.874Z,100197.69
2023-05-09T18:40:30.480Z,100200.91
2023-05-09T18:45:32.363Z,100195.78
2023-05-09T18:50:33.959Z,100197.22
2023-05-09T18:55:35.610Z,100207.44
2023-05-09T19:00:37.148Z,100199.91
2023-05-09T19:05:38.664Z,100212.06
2023-05-09T19:10:41.315Z,100199.94
2023-05-09T19:15:42.963Z,100210.28
2023-05-09T19:20:44.653Z,100225.34
2023-05-09T19:25:46.210Z,100219.13
2023-05-09T19:30:47.844Z,100224.91
2023-05-09T19:35:49.482Z,100217.19
2023-05-09T19:40:51.098Z,100228.97
2023-05-09T19:45:52.742Z,100226.06
2023-05-09T19:50:57.260Z,100231.81
2023-05-09T19:55:59.049Z,100233.41
2023-05-09T20:01:00.767Z,100245.47
2023-05-09T20:06:02.866Z,100243.50
2023-05-09T20:11:04.639Z,100244.31
2023-05-09T20:16:06.282Z,100242.13
2023-05-09T20:21:07.894Z,100237.56
2023-05-09T20:26:09.573Z,100240.88
2023-05-09T20:31:11.168Z,100236.78
2023-05-09T20:36:12.832Z,100240.53
2023-05-09T20:41:14.355Z,100246.94
2023-05-09T20:46:16.053Z,100241.03
2023-05-09T20:51:17.798Z,100242.41
2023-05-09T20:56:19.420Z,100247.97
2023-05-09T21:07:39.097Z,100250.03
2023-05-09T21:12:40.775Z,100254.72
2023-05-09T21:17:42.571Z,100252.47
2023-05-09T21:22:44.094Z,100247.69
2023-05-09T21:27:45.717Z,100248.19
2023-05-09T21:32:47.369Z,100252.88
2023-05-09T21:37:49.062Z,100253.97
2023-05-09T21:42:50.601Z,100250.31
2023-05-09T21:47:52.349Z,100244.41
2023-05-09T21:52:54.016Z,100246.56
2023-05-09T21:57:55.612Z,100244.69
2023-05-09T22:02:58.368Z,100244.63
2023-05-09T22:07:59.901Z,100233.75
2023-05-09T22:13:01.488Z,100248.78
2023-05-09T22:18:03.078Z,100240.38
2023-05-09T22:23:04.677Z,100252.31
2023-05-09T22:28:06.202Z,100243.88
2023-05-09T22:33:07.756Z,100245.66
2023-05-09T22:38:09.369Z,100241.16
2023-05-09T22:43:10.894Z,100247.53
2023-05-09T22:48:12.464Z,100247.97
2023-05-09T22:53:14.031Z,100239.00
2023-05-09T22:58:15.535Z,100246.81
2023-05-09T23:03:17.168Z,100254.72
2023-05-09T23:08:18.680Z,100247.69
2023-05-09T23:13:20.300Z,100240.16
2023-05-09T23:18:21.811Z,100246.38
2023-05-09T23:23:23.542Z,100243.28
2023-05-09T23:28:25.206Z,100248.44
2023-05-09T23:33:26.780Z,100251.81
2023-05-09T23:38:28.278Z,100247.78
2023-05-09T23:43:29.825Z,100249.31
2023-05-09T23:48:31.350Z,100247.47
2023-05-09T23:53:32.860Z,100251.06
2023-05-09T23:58:34.369Z,100244.91
